Date,TemperatureHighF,TemperatureAvgF,TemperatureLowF,DewpointHighF,DewpointAvgF,DewpointLowF,HumidityHigh,HumidityAvg,HumidityLow,PressureMaxIn,PressureMinIn,WindSpeedMaxMPH,WindSpeedAvgMPH,GustSpeedMaxMPH,PrecipitationSumIn
2013-1-1,51.6,46.7,38.8,51.1,41.7,23.8,98,84,42,29.44,29.29,4,0,4,1.12
2013-1-2,39.7,35.2,33.3,37.5,28.3,22.9,95,76,61,29.53,29.38,4,0,4,0.21
2013-1-3,50.9,35.7,29.5,24.5,18.3,9.3,70,51,27,29.68,29.47,5,0,5,0.21
2013-1-4,53.1,35.8,27.1,19.1,13.0,7.2,58,40,23,29.76,29.65,6,0,6,0.21
2013-1-5,48.9,37.8,27.9,31.3,17.6,10.7,74,46,27,29.71,29.56,6,0,6,0.21
2013-1-6,52.0,41.0,33.6,35.0,26.6,18.5,81,59,31,29.62,29.47,10,1,10,0.21
2013-1-7,60.1,38.6,27.3,23.0,17.3,13.4,62,44,24,29.68,29.56,5,0,5,0.21
2013-1-8,63.3,48.5,38.5,31.0,23.3,16.1,46,37,26,29.65,29.53,4,0,4,0.21
2013-1-9,58.1,54.3,49.5,56.6,46.0,27.2,98,75,46,29.71,29.56,5,0,5,0.38
2013-1-10,65.1,60.7,56.7,56.8,52.4,48.1,98,75,54,29.68,29.38,8,1,8,0.21
2013-1-11,69.3,64.6,61.7,60.9,54.0,46.4,89,70,47,29.47,29.35,10,1,10,0.21
2013-1-12,70.0,66.4,64.4,63.9,55.7,43.8,91,70,46,29.44,29.26,6,0,6,28.96
2013-1-13,68.9,59.7,39.7,60.3,49.4,33.8,87,70,46,29.50,29.23,15,1,15,1.17
2013-1-14,40.6,35.4,32.5,34.6,29.8,25.4,94,80,65,29.59,29.44,115,2,115,0.74
2013-1-15,39.2,36.0,34.0,38.7,35.3,32.3,98,97,94,29.50,29.26,6,1,6,1.33
2013-1-16,38.1,37.0,36.1,37.6,36.5,35.6,98,98,98,29.44,29.26,4,0,4,0.33
2013-1-17,40.1,35.6,32.7,37.4,27.7,17.9,98,74,49,29.71,29.23,8,1,8,0.21
2013-1-18,59.4,37.9,28.0,27.8,21.0,0.0,81,55,22,29.88,29.65,1,0,1,0.21
2013-1-19,59.9,44.3,35.1,21.4,16.9,13.5,47,34,19,29.74,29.53,11,1,11,0.21
2013-1-20,64.9,45.7,35.1,26.7,22.3,15.9,57,41,23,29.56,29.44,4,0,4,32.78
2013-1-21,52.7,37.9,28.6,19.2,9.8,2.6,48,32,18,29.56,29.41,6,0,7,0.00
2013-1-22,46.0,32.3,23.4,8.3,3.4,-0.1,38,29,20,29.68,29.53,8,0,8,18.68
2013-1-23,58.8,43.8,32.7,22.9,14.0,3.4,37,30,22,29.68,29.47,10,1,10,18.68
2013-1-24,49.5,40.4,33.6,23.9,11.2,1.9,44,31,19,29.71,29.47,8,1,8,18.68
2013-1-25,47.8,43.1,37.8,36.3,22.5,4.3,73,48,23,29.62,29.38,4,0,4,18.68
2013-1-26,57.9,41.6,32.4,31.3,23.4,13.9,75,52,24,29.62,29.47,5,0,5,0.00
2013-1-27,50.5,45.6,36.9,24.9,21.8,15.9,44,39,35,29.68,29.56,4,0,4,18.68
2013-1-28,66.0,54.8,46.2,41.1,31.4,20.9,62,41,34,29.65,29.47,6,0,7,18.68
2013-1-29,68.4,60.2,52.5,56.0,47.6,38.0,76,63,48,29.53,29.09,115,0,115,18.68
2013-1-30,70.0,59.7,37.0,55.2,43.5,11.6,92,57,34,29.29,28.91,24,3,24,18.68
2013-1-31,53.6,39.6,31.1,17.7,12.6,9.2,45,34,21,29.50,29.23,12,3,14,0.00
2013-2-1,43.7,32.6,23.5,19.2,5.0,-3.1,40,31,20,29.76,29.41,9,1,9,18.68
2013-2-2,42.1,34.1,27.1,32.7,15.7,1.5,76,48,33,29.68,29.41,10,0,10,18.68
2013-2-3,61.2,41.8,31.6,34.2,19.6,7.9,85,47,17,29.47,29.35,13,1,13,18.68
2013-2-4,54.0,42.6,32.2,20.3,17.0,13.6,52,37,23,29.44,29.26,6,0,6,0.00
2013-2-5,68.2,51.7,43.3,34.1,27.8,16.0,67,41,23,29.38,29.23,9,1,9,18.68
2013-2-6,72.0,49.9,34.5,40.1,25.5,17.3,83,44,16,29.53,29.38,6,0,6,18.68
2013-2-7,61.3,52.2,48.6,36.7,29.6,18.4,62,42,29,29.47,29.23,6,1,6,18.68
2013-2-8,53.8,44.6,33.6,43.3,29.8,16.9,83,57,33,29.59,29.23,8,1,8,18.68
2013-2-9,68.2,45.8,31.1,23.5,18.3,11.3,60,36,15,29.62,29.47,5,1,5,18.68
2013-2-10,58.1,50.9,48.6,54.4,24.2,16.5,93,39,26,29.50,29.20,8,1,8,0.50
2013-2-11,59.0,52.8,44.4,56.4,36.3,21.8,91,57,29,29.50,29.26,7,0,7,0.04
2013-2-12,52.9,45.2,39.9,33.3,23.9,17.0,69,45,26,29.47,29.09,4,0,4,0.00
2013-2-13,47.1,43.0,37.6,42.0,30.1,21.6,88,61,45,29.35,29.00,12,1,12,0.00
2013-2-14,63.7,45.3,33.1,31.7,22.8,14.4,78,44,18,29.41,29.32,10,1,10,0.00
2013-2-15,58.5,44.5,37.6,27.5,21.2,12.9,58,41,26,29.47,29.35,8,1,229,0.00
2013-2-16,45.9,34.0,25.9,13.2,5.7,-2.0,41,30,21,29.50,29.41,9,1,9,0.17
2013-2-17,54.3,35.5,21.9,11.3,4.6,-0.1,44,28,18,29.59,29.47,10,1,10,0.00
2013-2-18,66.7,49.3,36.7,30.9,13.8,1.0,56,24,18,29.56,29.20,14,2,14,0.16
2013-2-19,58.6,45.9,30.9,44.9,16.7,1.0,87,35,16,29.56,29.20,15,2,15,0.16
2013-2-20,39.2,33.7,27.9,9.1,6.6,2.8,44,32,24,29.59,29.47,6,1,6,0.00
2013-2-21,58.8,43.0,30.6,41.0,17.1,3.8,78,39,17,29.50,29.12,6,1,6,0.00
2013-2-22,54.9,49.3,46.2,42.6,37.1,33.1,82,64,46,29.38,29.17,6,0,6,0.00
2013-2-23,54.5,46.5,36.5,41.1,34.5,27.1,83,65,37,29.35,29.17,5,0,5,0.92
2013-2-24,66.0,41.4,33.6,29.2,20.1,9.7,70,46,15,29.41,29.26,6,1,6,1.79
2013-2-25,67.6,50.2,39.0,38.0,20.6,12.5,70,32,20,29.32,28.85,10,2,10,0.00
2013-2-26,50.2,45.0,40.3,39.8,28.4,19.1,77,53,33,29.09,28.79,19,4,19,0.16
2013-2-27,58.6,45.1,39.9,23.7,19.0,17.0,41,35,25,29.26,29.06,12,3,12,0.00
2013-2-28,42.3,38.8,34.9,20.1,14.4,11.3,43,36,32,29.38,29.17,8,1,8,36.30
2013-3-1,41.9,36.4,33.4,23.7,16.0,0.0,67,44,34,29.38,29.29,7,0,7,0.00
2013-3-2,37.2,33.3,30.0,24.4,18.6,13.8,70,55,40,29.44,29.32,6,0,6,0.00
2013-3-3,51.6,35.3,26.2,13.9,8.1,0.1,49,34,19,29.44,29.35,10,1,10,1.95
2013-3-4,65.8,46.9,31.3,20.3,12.9,4.7,40,26,15,29.47,29.20,8,1,8,0.00
2013-3-5,57.6,48.8,34.9,53.8,31.1,8.7,90,51,27,29.35,29.00,16,3,16,0.83
2013-3-6,47.5,37.0,29.8,16.5,11.5,6.6,46,35,29,29.56,29.32,8,2,8,0.00
2013-3-7,58.6,38.7,27.0,22.9,15.7,11.1,59,41,24,29.65,29.53,6,1,6,0.00
2013-3-8,69.6,45.5,28.6,21.6,14.7,6.0,58,33,15,29.68,29.50,4,1,5,0.00
2013-3-9,72.9,54.0,39.7,23.9,16.4,6.8,34,23,14,29.56,29.35,8,1,8,0.00
2013-3-10,75.6,63.1,51.8,28.5,22.6,14.0,26,21,15,29.41,29.17,9,2,9,0.00
2013-3-11,66.2,50.1,39.0,48.4,33.2,19.0,84,56,24,29.32,29.12,8,2,8,1.25
2013-3-12,63.1,44.1,30.7,25.7,18.0,10.1,66,38,18,29.47,29.29,11,1,11,0.00
2013-3-13,58.6,42.8,33.6,17.3,12.0,2.9,45,30,17,29.68,29.44,13,1,13,0.00
2013-3-14,62.2,42.4,27.3,15.6,8.6,3.9,41,26,16,29.74,29.53,9,1,9,0.00
2013-3-15,80.4,57.5,41.2,30.2,17.5,5.1,28,21,15,29.56,29.23,14,2,14,0.00
2013-3-18,64.4,55.1,48.6,56.0,45.9,22.5,83,71,20,29.26,29.06,14,0,14,0.41
2013-3-19,68.0,50.9,37.2,39.1,23.3,5.4,80,41,15,29.47,29.26,6,1,6,0.00
2013-3-20,63.9,47.4,38.3,16.7,10.0,2.9,32,22,16,29.47,29.29,17,2,17,0.00
2013-3-21,55.9,39.1,26.1,14.2,6.3,0.6,39,26,16,29.41,29.26,10,1,10,1.66
2013-3-22,50.4,44.2,38.8,22.6,15.2,5.6,42,31,23,29.32,29.23,4,0,4,0.00
2013-3-23,55.2,48.7,43.7,46.6,38.1,17.9,85,67,42,29.26,28.97,5,0,5,0.91
2013-3-24,63.1,51.2,38.5,52.0,35.6,11.2,96,60,29,29.12,28.79,24,3,24,0.67
2013-3-25,41.2,36.1,34.0,12.3,9.9,8.1,39,33,29,29.44,29.09,18,3,18,0.67
2013-3-26,43.2,36.5,32.0,15.9,12.8,11.1,43,37,31,29.62,29.41,11,1,11,0.67
2013-3-27,59.4,42.2,27.9,19.6,14.2,9.3,59,34,19,29.71,29.56,11,1,11,0.67
2013-3-28,70.2,49.9,34.5,20.6,16.1,9.7,43,28,14,29.68,29.53,8,1,8,0.67
2013-3-29,70.5,54.8,43.5,24.4,19.9,15.4,36,26,15,29.59,29.44,14,1,14,0.67
2013-3-30,71.2,56.4,47.3,51.1,34.0,21.0,87,47,23,29.50,29.29,6,1,6,0.57
2013-3-31,65.3,57.5,53.6,57.4,50.9,41.6,93,80,43,29.29,29.17,7,1,7,4.19
2013-4-1,72.9,57.5,48.2,50.6,36.4,19.9,89,53,23,29.44,29.20,10,1,10,4.19
2013-4-2,58.6,48.6,40.6,22.1,14.4,10.1,34,26,17,29.56,29.41,8,2,8,0.67
2013-4-3,57.2,47.9,41.4,29.8,17.6,9.2,52,31,19,29.53,29.41,10,2,10,4.23
2013-4-4,46.0,44.8,43.7,37.7,35.1,26.8,76,69,48,29.44,29.26,6,1,6,0.67
2013-4-5,73.8,55.0,44.2,43.6,28.7,12.5,83,44,13,29.44,29.29,9,1,9,0.67
2013-4-6,79.2,59.9,41.4,34.0,22.6,14.9,58,28,12,29.47,29.32,12,1,12,0.67
2013-4-7,80.1,63.7,52.2,34.8,27.3,16.1,37,26,15,29.44,29.29,15,1,15,4.52
2013-4-8,85.3,68.6,57.9,42.1,34.9,27.8,46,30,19,29.41,29.29,13,2,13,4.52
2013-4-9,88.7,72.2,60.4,43.9,37.9,33.3,45,30,18,29.47,29.29,12,1,12,0.67
2013-4-10,93.7,75.9,61.3,42.1,36.6,28.1,44,26,12,29.38,29.12,13,1,13,0.67
2013-4-11,77.7,67.1,54.3,58.4,45.5,32.6,91,50,25,29.17,28.91,11,1,12,0.75
2013-4-12,71.6,55.5,43.0,47.6,30.2,18.5,82,45,17,29.32,29.00,13,2,13,0.67
2013-4-13,79.7,59.6,43.3,34.6,27.3,18.5,65,33,14,29.44,29.29,6,1,6,0.67
2013-4-14,56.5,54.1,53.4,27.8,26.3,23.2,36,34,30,29.35,29.26,2,0,2,0.00
2013-4-19,58.8,48.5,40.1,42.8,25.9,18.2,83,44,25,29.50,29.14,14,2,14,6.64
2013-4-20,72.3,52.9,37.0,32.8,21.5,11.5,66,34,14,29.56,29.47,9,1,9,0.00
2013-4-21,79.0,59.2,43.7,27.0,21.9,15.8,40,26,13,29.65,29.50,6,0,6,6.64
2013-4-22,82.0,64.1,52.3,39.9,26.3,21.5,39,25,14,29.59,29.14,6,1,6,6.64
2013-4-23,82.6,66.3,54.0,35.9,31.5,26.2,40,28,17,29.50,29.32,10,1,10,6.64
2013-4-24,65.5,57.3,46.4,51.6,38.5,28.3,73,51,33,29.59,29.29,8,1,11,6.64
2013-4-25,75.6,55.6,42.1,28.3,22.3,11.3,52,31,13,29.68,29.53,10,1,10,6.64
2013-4-26,81.0,59.5,45.1,39.5,24.5,16.6,59,29,12,29.71,29.53,6,1,6,6.64
2013-4-27,70.5,62.2,53.4,52.2,43.7,37.2,70,52,33,29.62,29.29,5,0,5,6.64
2013-4-28,66.4,61.8,58.1,61.6,52.9,39.9,89,73,39,29.35,29.14,8,1,8,3.32
2013-4-29,79.0,64.7,56.3,56.0,43.2,29.5,88,52,21,29.38,29.23,9,1,9,7.84
2013-4-30,86.5,67.7,53.2,51.6,38.8,29.3,79,41,16,29.38,29.26,6,1,6,0.00
2013-5-1,81.3,69.8,63.1,45.3,39.3,34.8,50,34,22,29.47,29.35,7,1,7,0.00
2013-5-2,72.3,65.7,60.1,42.0,38.3,34.4,44,36,32,29.47,29.38,7,1,7,0.00
2013-5-3,78.1,64.7,46.6,45.3,38.5,32.9,72,40,22,29.41,29.17,9,2,9,0.25
2013-5-4,54.5,46.4,41.2,45.7,38.3,34.3,94,74,50,29.35,29.20,172,1,172,2.15
2013-5-5,65.1,49.9,42.4,46.7,38.9,28.7,86,68,29,29.26,29.12,11,0,11,0.46
2013-5-6,58.6,51.7,48.7,55.0,47.8,44.8,98,87,65,29.26,29.12,9,0,9,12.32
2013-5-7,75.6,58.2,45.1,51.7,39.9,30.2,93,58,22,29.35,29.20,9,1,9,0.00
2013-5-8,82.8,65.8,52.9,51.8,41.8,32.9,81,47,20,29.44,29.32,12,1,12,12.32
2013-5-9,85.5,71.1,56.7,52.9,40.4,33.5,76,37,18,29.47,29.35,9,1,9,0.00
2013-5-10,75.4,65.9,60.3,54.4,45.9,37.8,76,50,32,29.41,29.26,10,0,10,0.41
2013-5-11,78.6,67.0,55.4,56.6,45.0,34.8,74,47,25,29.38,29.23,10,1,10,12.73
2013-5-12,72.9,60.1,48.9,42.8,25.6,14.4,61,30,14,29.53,29.35,8,1,8,0.00
2013-5-13,75.7,59.4,43.3,29.6,24.3,18.2,49,28,13,29.65,29.47,10,1,10,0.00
2013-5-14,87.8,69.9,53.1,37.4,33.4,28.7,44,28,16,29.59,29.38,12,2,12,0.00
2013-5-15,90.7,73.7,59.0,41.4,34.6,26.4,48,27,12,29.50,29.32,115,1,115,0.00
2013-5-16,89.2,73.8,64.0,44.3,36.8,26.6,43,27,13,29.41,29.29,58,1,58,0.00
2013-5-17,72.1,72.1,72.1,32.3,32.3,32.3,23,23,23,29.38,29.29,3,0,3,13.44
2013-5-18,85.3,47.6,0.0,59.3,32.8,0.0,66,28,28,29.38,29.29,9,1,9,12.73
2013-5-19,86.5,75.3,68.0,67.1,53.9,41.4,84,51,27,29.38,29.29,173,2,173,0.00
2013-5-20,91.0,75.0,63.9,53.6,47.5,39.9,61,41,19,29.41,29.29,6,0,6,0.00
2013-5-21,93.4,78.8,67.3,56.6,46.6,36.9,65,36,17,29.35,29.17,6,1,6,0.00
2013-5-22,85.3,73.4,64.6,54.2,46.0,38.1,69,40,20,29.26,29.17,8,1,12,0.08
2013-5-23,89.2,72.6,62.6,61.8,45.7,33.8,85,45,18,29.38,29.23,8,1,10,0.00
2013-5-24,80.6,66.3,56.8,46.1,33.7,21.5,63,33,15,29.59,29.38,6,1,229,0.00
2013-5-25,86.5,67.2,51.3,34.8,28.1,17.9,47,26,11,29.65,29.47,6,0,6,0.00
2013-5-26,91.2,72.0,53.8,38.7,31.7,24.4,46,25,12,29.56,29.44,6,1,6,0.00
2013-5-27,92.5,75.9,61.7,42.6,37.2,31.9,41,26,14,29.50,29.35,12,1,12,0.00
2013-5-28,93.4,77.7,65.8,42.2,38.8,34.5,38,26,14,29.47,29.35,58,1,58,0.00
2013-5-29,92.8,79.0,68.5,45.9,40.6,37.2,34,26,17,29.47,29.35,8,0,8,0.00
2013-5-30,89.6,75.6,0.0,50.4,45.4,0.0,46,35,21,29.47,29.26,8,0,8,0.00
2013-5-31,90.7,78.0,69.8,72.9,66.2,45.8,87,68,30,29.38,29.20,5,1,6,0.00
2013-6-1,87.1,73.5,67.8,75.6,69.2,64.8,98,88,61,29.29,29.12,9,1,10,0.00
2013-6-2,84.9,75.4,67.1,71.3,67.3,65.3,98,78,57,29.20,29.12,6,1,6,0.81
2013-6-3,91.6,73.6,63.5,71.5,63.5,57.8,98,74,41,29.26,29.12,6,1,6,1.34
2013-6-4,98.4,75.5,60.3,67.1,60.5,56.3,96,65,31,29.26,29.14,5,0,5,0.00
2013-6-5,85.3,70.9,65.1,74.4,67.2,60.5,98,88,66,29.26,29.09,7,0,7,0.25
2013-6-6,81.9,69.6,64.8,72.8,67.1,64.2,98,92,69,29.12,29.06,6,0,6,0.25
2013-6-9,93.0,77.7,68.5,76.6,69.5,64.8,95,78,44,29.26,29.06,8,1,8,0.29
2013-6-10,92.8,77.8,66.4,73.5,66.8,61.0,98,73,37,29.23,29.12,13,2,13,2.22
2013-6-11,99.9,82.0,69.6,76.2,71.1,67.9,96,73,42,29.29,29.17,10,1,10,0.25
2013-6-12,102.6,84.6,71.8,79.2,71.6,62.6,97,70,30,29.35,29.17,12,1,12,2.22
2013-6-13,95.4,80.0,69.8,77.9,72.2,65.6,95,78,54,29.23,29.03,13,2,13,0.25
2013-6-14,93.9,75.5,63.7,67.2,61.4,54.4,95,66,31,29.26,29.12,4,1,4,0.00
2013-6-15,97.5,77.1,61.7,67.2,62.4,58.7,94,65,34,29.35,29.23,6,0,6,2.22
2013-6-16,97.3,77.4,67.6,77.6,67.8,63.2,91,74,39,29.35,29.20,12,1,12,0.37
2013-6-17,99.0,75.0,68.9,75.8,70.2,66.5,97,87,41,29.26,29.12,15,1,15,0.62
2013-6-18,88.7,73.7,66.9,77.4,69.7,65.1,98,88,60,29.20,29.09,10,1,10,0.62
2013-6-19,98.8,77.5,64.2,75.9,67.2,63.5,98,75,38,29.32,29.17,2,0,3,0.00
2013-6-20,99.9,78.6,64.8,71.9,66.9,63.2,98,72,38,29.44,29.29,5,1,5,2.65
2013-6-21,95.9,76.8,64.0,74.4,66.1,60.9,98,74,40,29.47,29.35,4,0,4,0.00
2013-6-22,96.6,79.3,66.9,70.8,65.5,61.7,95,67,36,29.47,29.29,5,0,5,0.00
2013-6-23,98.6,78.4,66.7,72.1,67.2,63.2,91,71,38,29.41,29.29,6,0,6,0.00
2013-6-24,99.7,79.5,68.9,77.1,71.0,67.2,97,78,41,29.44,29.29,6,1,6,4.87
2013-6-25,98.6,79.4,71.8,80.2,72.3,67.4,97,81,41,29.38,29.23,7,1,7,0.00
2013-6-26,98.6,82.1,70.2,76.2,71.4,67.2,98,73,42,29.32,29.12,10,2,10,2.65
2013-6-27,99.9,81.2,67.5,82.6,72.5,66.8,98,78,42,29.20,29.06,9,1,9,0.30
2013-6-28,92.7,83.6,71.8,75.8,71.6,65.3,98,70,46,29.12,29.00,9,2,9,0.30
2013-6-29,92.7,92.7,92.7,71.9,71.9,71.9,51,51,51,29.00,29.00,4,4,4,0.00
2013-6-30,92.7,92.7,92.7,71.9,71.9,71.9,51,51,51,29.00,29.00,4,4,4,0.00
2013-7-1,93.4,79.5,63.0,73.7,66.7,61.3,98,68,43,29.14,29.00,9,2,9,0.03
2013-7-2,93.4,74.4,62.6,68.9,63.3,60.1,98,72,38,29.29,29.12,10,1,10,0.00
2013-7-3,88.7,72.4,66.6,73.3,67.9,62.5,98,87,54,29.35,29.23,4,0,4,0.05
2013-7-4,71.4,69.0,66.6,70.8,68.4,66.0,98,98,97,29.35,29.23,4,0,4,4.85
2013-7-5,76.8,71.0,68.0,74.3,70.1,67.4,98,97,88,29.38,29.26,8,0,8,1.08
2013-7-6,73.2,70.7,68.7,72.3,69.9,68.1,98,97,94,29.38,29.29,2,0,2,11.56
2013-7-7,93.7,76.9,68.7,78.2,71.8,68.1,98,86,56,29.41,29.29,5,0,5,1.08
2013-7-8,91.8,77.6,70.2,82.6,73.4,69.6,98,88,62,29.44,29.32,4,0,4,11.93
2013-7-9,99.1,81.5,73.6,80.9,73.9,69.0,98,80,44,29.44,29.26,9,1,9,1.08
2013-7-10,100.9,82.5,68.9,79.1,73.5,68.0,98,78,41,29.35,29.12,9,1,221,1.74
2013-7-11,97.0,76.8,68.5,79.9,72.1,68.0,98,87,54,29.26,29.12,7,0,7,11.83
2013-7-12,95.2,76.9,67.3,75.5,68.4,61.1,98,78,45,29.23,29.14,6,1,6,14.05
2013-7-13,95.7,76.8,62.1,74.4,66.8,60.0,95,74,42,29.29,29.17,6,1,6,14.05
2013-7-14,96.1,79.6,71.2,76.5,71.5,68.5,96,78,47,29.38,29.26,6,1,6,14.05
2013-7-15,95.4,79.5,70.5,78.2,71.2,68.0,98,78,48,29.50,29.35,5,1,5,14.05
2013-7-16,100.0,81.5,70.5,78.0,72.1,68.7,96,76,42,29.56,29.44,6,0,6,14.05
2013-7-17,102.6,82.5,70.3,82.1,73.7,69.4,97,78,43,29.56,29.38,3,0,3,14.05
2013-7-18,100.4,82.7,71.4,77.2,71.8,68.8,95,73,41,29.44,29.26,4,0,4,14.05
2013-7-19,100.0,82.3,70.2,75.2,70.7,66.0,96,72,38,29.38,29.17,7,1,7,0.00
2013-7-20,97.2,80.9,70.2,76.5,71.7,66.4,98,76,42,29.29,29.12,9,1,9,0.00
2013-7-21,97.0,78.0,70.2,78.9,72.0,66.3,97,83,45,29.26,29.14,8,1,10,0.08
2013-7-22,84.0,73.9,68.9,75.5,70.7,67.8,98,90,70,29.23,29.12,10,1,10,0.00
2013-7-23,81.5,73.7,69.3,77.8,71.5,68.4,98,93,75,29.20,29.06,8,1,8,0.17
2013-7-24,93.2,75.8,68.7,77.9,71.6,68.1,98,88,56,29.17,29.12,5,0,5,14.30
2013-7-25,95.0,76.7,65.1,71.2,66.1,62.5,97,74,40,29.29,29.12,4,0,4,0.00
2013-7-26,95.9,76.4,63.1,70.7,64.9,60.0,98,72,38,29.32,29.20,5,0,5,12.08
2013-7-27,92.7,77.2,68.9,72.6,67.7,63.4,95,75,45,29.23,29.12,8,1,8,0.00
2013-7-28,91.4,75.6,67.1,73.1,66.9,61.3,95,77,46,29.32,29.17,3,0,3,0.00
2013-7-29,92.7,73.1,63.5,67.2,61.2,56.9,89,69,36,29.44,29.29,3,0,3,14.30
2013-7-30,96.1,76.1,61.7,73.9,66.3,58.8,97,75,40,29.44,29.29,6,1,6,0.08
2013-7-31,89.8,74.6,67.8,80.4,72.0,67.1,98,92,68,29.35,29.17,5,1,7,15.67
2013-8-1,97.5,78.9,69.3,78.1,71.1,65.1,98,80,46,29.29,29.14,7,0,7,1.20
2013-8-2,93.6,73.9,65.7,70.7,65.9,62.8,98,79,44,29.29,29.17,4,0,4,1.20
2013-8-3,88.7,74.8,67.6,78.3,70.7,65.5,96,87,70,29.35,29.23,4,0,4,15.67
2013-8-4,95.7,78.3,69.4,79.2,71.6,64.6,98,82,51,29.35,29.23,4,0,4,1.20
2013-8-5,90.5,75.5,66.4,72.0,66.6,61.5,92,76,40,29.32,29.20,4,0,4,1.20
2013-8-6,85.3,73.8,69.6,78.8,71.7,67.0,98,93,76,29.26,29.17,4,0,4,0.37
2013-8-7,95.2,76.0,70.3,80.0,72.8,69.4,98,91,56,29.26,29.17,7,0,7,0.71
2013-8-8,95.0,75.4,68.5,82.6,72.3,68.0,98,91,63,29.29,29.14,6,0,6,0.87
2013-8-9,93.7,78.5,70.7,80.0,73.8,70.1,98,87,55,29.32,29.20,8,1,8,0.33
2013-8-10,87.3,74.7,70.9,79.4,73.1,70.3,98,95,76,29.38,29.29,6,0,6,17.91
2013-8-11,95.7,78.9,69.4,80.4,72.8,68.8,98,84,45,29.41,29.26,8,1,222,0.33
2013-8-12,97.0,78.5,70.9,77.7,72.8,69.7,98,85,46,29.38,29.17,8,1,8,15.94
2013-8-13,93.0,78.0,70.9,79.5,72.9,69.7,98,86,55,29.26,29.14,4,0,4,18.16
2013-8-14,90.5,73.6,64.6,72.3,66.1,58.5,96,79,47,29.29,29.17,4,1,4,0.33
2013-8-15,88.3,70.1,58.3,72.9,63.7,56.7,96,81,56,29.32,29.23,4,1,4,0.33
2013-8-16,80.2,68.9,63.9,69.0,63.7,60.9,92,84,66,29.32,29.23,4,0,4,0.33
2013-8-17,71.4,67.7,65.8,67.8,64.9,63.4,95,91,86,29.35,29.29,3,0,3,0.00
2013-8-18,77.5,70.0,64.8,71.3,67.1,64.2,98,91,68,29.41,29.29,6,0,6,0.08
2013-8-19,90.7,74.0,65.8,78.7,70.5,65.3,98,90,64,29.38,29.23,3,0,3,18.24
2013-8-20,91.6,76.5,68.9,80.2,72.6,68.3,98,89,61,29.41,29.29,8,0,8,0.62
2013-8-21,92.8,77.4,71.2,80.0,72.9,69.6,98,87,61,29.44,29.35,7,0,7,0.46
2013-8-22,94.5,75.9,68.5,79.6,71.9,66.8,98,89,56,29.41,29.26,10,0,10,2.42
2013-8-23,96.6,78.1,68.7,81.3,72.5,68.1,98,85,49,29.35,29.23,3,0,3,0.38
2013-8-24,96.4,78.6,68.0,78.5,71.8,67.4,98,82,44,29.47,29.29,4,0,4,0.38
2013-8-25,92.7,77.1,67.1,71.6,67.1,64.1,95,74,45,29.59,29.41,6,1,6,21.28
2013-8-26,94.1,74.6,62.8,68.1,64.0,59.5,97,74,40,29.56,29.35,4,0,4,21.28
2013-8-27,96.1,75.4,63.0,72.9,66.3,62.4,98,77,41,29.44,29.26,4,0,4,0.38
2013-8-28,96.8,77.7,66.2,77.7,70.1,65.6,98,80,46,29.35,29.23,4,0,4,0.38
2013-8-29,97.5,80.2,68.0,78.2,71.6,67.4,98,78,45,29.32,29.17,8,0,8,0.38
2013-8-30,100.0,82.4,71.1,80.2,73.6,69.9,98,78,40,29.26,29.12,6,0,6,0.38
2013-8-31,100.8,82.8,72.3,80.5,72.7,68.5,97,75,39,29.20,29.09,6,0,6,0.38
2013-9-1,95.9,80.4,72.9,78.2,70.8,64.6,96,75,42,29.20,29.09,10,0,10,0.38
2013-9-2,84.6,75.5,68.7,74.6,70.9,67.8,98,87,66,29.26,29.09,9,1,9,0.38
2013-9-3,95.9,79.2,69.4,79.2,69.7,61.2,98,76,41,29.26,29.12,4,0,4,0.38
2013-9-4,94.8,76.1,64.9,73.3,65.7,61.3,98,74,40,29.38,29.23,3,0,3,0.38
2013-9-5,95.0,74.7,62.2,71.4,64.1,61.4,98,74,39,29.41,29.29,3,0,3,0.38
2013-9-6,95.5,76.2,63.3,72.2,64.8,61.7,97,72,36,29.41,29.29,6,0,6,0.38
2013-9-7,97.3,76.8,66.4,72.7,67.8,64.9,98,78,38,29.35,29.20,4,0,4,0.38
2013-9-8,96.6,77.5,66.9,75.7,70.2,66.2,98,80,47,29.29,29.14,3,0,3,0.00
2013-9-9,93.2,79.2,70.5,80.3,71.7,66.6,97,80,49,29.35,29.23,8,0,8,0.04
2013-9-10,98.1,80.8,71.4,77.3,71.0,64.8,95,75,40,29.47,29.32,5,0,5,0.00
2013-9-11,96.8,79.3,70.2,74.2,69.0,62.2,96,74,38,29.47,29.32,6,0,6,0.00
2013-9-12,96.8,77.6,68.2,73.2,68.4,62.8,98,78,39,29.35,29.12,7,1,7,21.98
2013-9-13,87.1,72.4,59.9,75.0,63.3,51.1,98,77,39,29.23,29.12,4,1,4,0.00
2013-9-14,86.5,66.2,51.8,59.6,55.0,50.1,95,71,38,29.32,29.20,4,0,4,0.00
2013-9-15,87.1,69.6,56.3,67.9,59.8,55.5,98,75,40,29.35,29.29,57,0,57,0.00
2013-9-16,93.6,73.2,59.7,68.0,61.5,55.4,98,71,36,29.41,29.32,4,0,4,0.00
2013-9-17,93.2,74.8,63.1,68.4,64.8,60.9,94,73,40,29.44,29.29,6,1,6,0.00
2013-9-18,88.0,73.5,65.8,69.8,64.5,60.7,88,75,53,29.44,29.29,5,1,5,0.00
2013-9-19,94.3,75.0,65.3,68.8,65.0,62.0,94,74,40,29.41,29.29,6,1,6,21.98
2013-9-20,91.6,76.0,65.5,68.9,65.1,62.8,94,72,42,29.32,29.09,6,1,6,19.80
2013-9-21,78.3,67.1,56.5,71.7,64.9,55.5,98,93,68,29.12,29.00,4,0,4,3.57
2013-9-22,84.2,64.7,52.3,63.3,55.9,51.8,98,77,41,29.14,29.06,4,1,4,23.37
2013-9-23,89.6,68.3,53.1,64.2,58.0,52.4,98,74,39,29.23,29.14,6,0,6,3.57
2013-9-24,77.2,67.8,60.6,69.3,64.7,59.0,96,90,74,29.23,29.06,4,1,4,25.59
2013-9-25,87.3,70.8,65.7,73.3,66.8,64.6,98,88,55,29.12,29.06,3,0,3,23.37
2013-9-26,89.4,73.7,64.0,69.5,64.7,61.3,97,76,45,29.26,29.14,3,0,6,0.00
2013-9-27,88.2,69.5,59.0,68.8,61.3,56.8,98,78,40,29.38,29.23,4,0,4,0.00
2013-9-28,85.3,68.1,58.8,62.4,58.1,53.8,97,74,40,29.47,29.29,6,0,6,0.00
2013-9-29,79.9,65.9,57.9,60.3,57.9,55.2,91,77,48,29.38,29.23,4,0,4,0.00
2013-9-30,77.4,66.5,62.6,64.5,60.9,57.6,95,83,60,29.32,29.23,3,0,3,0.04
2013-10-1,88.5,69.8,60.8,69.8,64.2,59.7,97,84,54,29.38,29.23,3,0,3,23.41
2013-10-2,85.1,72.4,64.0,68.7,66.1,63.2,98,82,51,29.41,29.26,4,0,4,25.63
2013-10-3,87.4,73.4,64.8,68.2,65.1,60.6,98,79,45,29.38,29.23,5,0,5,0.00
2013-10-4,89.4,73.8,65.5,70.7,66.7,63.4,94,80,49,29.38,29.23,6,1,6,0.00
2013-10-5,91.2,75.8,67.6,72.1,67.2,64.4,94,77,46,29.35,29.17,6,1,6,0.00
2013-10-6,82.0,69.8,55.4,73.3,64.8,53.4,96,85,65,29.20,29.06,8,1,8,0.17
2013-10-7,74.8,58.5,49.8,55.1,50.8,47.1,98,78,44,29.32,29.12,5,1,5,0.00
2013-10-8,84.2,62.3,49.6,60.6,53.0,46.6,91,74,44,29.35,29.23,4,0,4,0.00
2013-10-9,84.4,67.4,60.4,60.5,55.3,49.5,87,67,43,29.41,29.29,7,1,7,25.80
2013-10-10,88.5,68.1,58.1,64.3,59.8,56.3,96,78,41,29.41,29.23,3,0,4,0.00
2013-10-11,87.3,66.9,55.9,63.9,58.9,55.4,98,79,43,29.32,29.23,5,0,5,0.00
2013-10-12,85.6,69.2,54.3,63.5,59.5,53.8,98,74,43,29.38,29.26,4,0,4,0.00
2013-10-13,84.6,68.0,58.1,65.7,59.9,56.4,98,78,46,29.47,29.35,3,0,3,0.00
2013-10-14,84.0,68.0,59.2,67.1,61.4,57.5,97,81,52,29.47,29.32,4,0,4,0.00
2013-10-15,78.4,67.3,61.7,63.3,60.3,57.7,95,80,52,29.38,29.23,3,0,4,0.00
2013-10-16,68.2,64.7,62.4,65.4,62.8,59.8,98,93,84,29.29,29.14,4,0,4,0.37
2013-10-17,65.1,64.1,63.0,64.5,63.5,62.4,98,98,98,29.32,29.12,5,0,5,0.08
2013-10-18,46.9,46.9,46.9,46.4,46.4,46.4,98,98,98,29.23,29.23,0,0,0,0.00
2013-11-7,49.6,41.8,34.5,32.8,30.6,29.0,83,65,50,29.50,29.44,1,0,4,0.62
2013-11-8,66.0,43.8,31.8,37.5,31.9,26.0,93,67,34,29.59,29.41,4,0,4,0.00
2013-11-9,63.1,49.4,38.3,43.4,37.2,31.1,81,64,41,29.56,29.41,4,0,4,0.00
2013-11-10,72.5,53.6,42.1,48.2,41.0,29.4,96,65,36,29.53,29.47,5,0,5,0.00
2013-11-11,75.6,50.9,36.1,36.2,31.2,1.9,79,50,6,29.53,29.35,5,0,5,0.00
2013-11-12,49.3,42.1,29.5,42.4,27.1,12.1,80,56,38,29.76,29.35,8,1,8,0.00
2013-11-13,34.0,29.7,27.5,18.2,15.1,11.8,67,54,48,29.74,29.65,3,0,3,0.62
2013-11-14,63.9,41.9,27.1,26.3,17.4,-10.6,73,43,5,29.68,29.41,8,0,8,0.62
2013-11-15,56.3,49.8,44.6,50.8,39.5,20.6,98,71,38,29.47,29.29,90,0,90,0.62
2013-11-16,66.2,58.9,50.4,59.3,55.7,49.8,98,89,78,29.35,29.23,5,1,5,0.62
2013-11-17,68.5,64.3,57.7,68.0,62.9,57.0,98,95,86,29.26,29.06,6,1,6,0.62
2013-11-18,68.5,54.1,43.5,57.5,44.0,30.6,98,72,39,29.38,29.14,4,2,4,0.62
2013-11-19,54.0,43.4,35.4,30.7,27.8,25.5,73,55,37,29.47,29.35,4,1,4,0.62
2013-11-20,66.0,48.4,33.3,39.0,31.3,26.3,79,53,36,29.47,29.35,0,0,0,0.62
2013-11-21,62.4,56.2,48.0,52.7,44.7,34.9,86,66,53,29.50,29.41,0,0,0,0.62
2013-11-22,61.3,56.3,48.2,59.6,54.1,47.1,98,92,84,29.50,29.41,0,0,0,1.16
2013-11-23,52.5,43.2,28.4,47.4,35.2,15.7,98,75,46,29.62,29.44,0,0,0,0.62
2013-11-24,44.6,29.6,21.9,17.4,12.2,8.6,65,49,30,29.76,29.59,0,0,0,0.62
2013-11-25,42.3,35.5,26.1,36.2,22.1,9.7,98,61,38,29.62,29.32,0,0,0,0.62
2013-11-26,45.7,39.1,33.8,45.2,38.5,32.5,98,98,95,29.32,29.00,0,0,0,1.45
2013-11-27,40.6,30.6,20.7,32.6,19.3,9.4,96,64,43,29.56,29.12,0,0,0,0.62
2013-11-28,50.2,28.4,16.9,24.6,15.0,9.4,77,59,34,29.68,29.53,0,0,0,0.62
2013-11-29,60.4,36.5,23.5,32.7,22.7,17.4,84,60,35,29.76,29.59,0,0,0,0.62
2013-11-30,57.6,43.4,33.1,31.3,26.0,23.0,73,52,35,29.68,29.47,0,0,0,0.00
2013-12-1,57.7,47.3,37.4,42.1,32.1,24.3,85,56,45,29.47,29.17,0,0,0,0.62
2013-12-2,57.2,51.2,46.0,54.1,49.3,42.1,98,93,86,29.20,29.00,2,1,2,0.62
2013-12-3,61.7,54.9,49.1,58.7,53.9,48.6,98,96,89,29.03,29.00,115,10,115,0.00
2013-12-4,73.2,65.0,57.9,64.4,61.2,57.4,98,88,67,29.17,29.00,10,1,10,0.00
2013-12-5,77.7,64.0,42.1,68.2,60.7,41.3,98,90,66,29.23,29.12,3,0,3,0.09
2013-12-6,42.1,38.2,33.8,41.6,37.7,33.3,98,98,97,29.47,29.14,0,0,0,1.15
2013-12-7,34.5,32.7,31.1,33.5,31.1,29.6,98,94,89,29.62,29.47,0,0,0,0.00
2013-12-8,48.4,40.7,34.5,47.7,40.1,32.2,98,98,91,29.47,29.29,0,0,0,1.42
2013-12-9,47.5,40.0,33.6,47.0,39.4,33.1,98,98,96,29.41,29.26,0,0,0,0.37
2013-12-10,48.0,32.9,26.2,33.6,29.0,24.3,98,87,54,29.59,29.29,0,0,0,0.16
2013-12-11,54.3,33.7,22.5,31.5,24.9,21.1,98,74,36,29.68,29.56,1,1,1,0.00
2013-12-12,48.0,29.3,20.8,24.8,16.5,12.6,82,60,38,29.76,29.59,1,0,1,0.00
2013-12-13,50.2,36.6,23.0,27.4,21.9,13.4,80,57,40,29.59,29.29,0,0,0,0.00
2013-12-14,52.5,45.5,36.9,52.0,42.4,25.5,98,90,49,29.29,29.00,0,0,0,0.63
2013-12-15,36.9,34.0,29.7,33.8,29.7,26.0,93,84,74,29.47,29.17,0,0,0,0.00
2013-12-16,58.5,38.8,26.4,34.9,28.4,24.7,97,70,36,29.47,29.35,0,0,0,0.00
2013-12-17,63.0,45.0,34.3,39.2,31.5,25.9,75,60,40,29.47,29.29,0,0,0,0.00
2013-12-18,58.1,39.2,27.0,27.6,22.7,17.1,86,55,27,29.59,29.41,0,0,0,0.00
2013-12-19,62.6,48.8,37.6,35.8,27.6,20.4,53,44,36,29.47,29.29,0,0,0,0.00
2013-12-20,66.0,59.6,52.0,58.6,49.0,28.3,89,69,39,29.32,29.17,0,0,0,0.00
2013-12-21,70.9,66.6,61.9,67.5,63.8,58.6,96,91,83,29.20,28.97,0,0,0,0.20
2013-12-22,68.7,56.1,53.1,66.9,55.0,52.5,98,96,85,29.29,29.00,0,0,0,1.00
2013-12-23,53.4,37.6,27.0,52.9,33.7,24.4,98,86,62,29.62,29.23,0,0,0,0.00
2013-12-24,42.3,28.0,22.1,25.4,17.9,10.9,90,67,43,29.74,29.59,4,0,4,0.00
2013-12-25,53.6,31.9,19.2,28.6,19.6,12.0,81,62,38,29.65,29.47,1,1,1,8.29
2013-12-26,54.9,35.4,25.5,33.8,25.5,21.4,90,68,44,29.59,29.47,1,1,1,8.29
2013-12-27,60.6,37.9,25.5,29.7,23.1,19.8,87,59,27,29.68,29.53,1,1,1,8.29
2013-12-28,46.0,39.7,33.3,40.5,32.8,21.8,98,78,49,29.56,29.12,1,1,1,0.66
2013-12-29,54.9,43.4,40.1,45.3,40.3,37.3,98,90,56,29.29,29.12,1,1,1,0.21
2013-12-30,43.3,36.2,30.7,42.3,31.9,28.2,96,85,70,29.50,29.29,6,1,6,0.00
2013-12-31,41.7,32.8,27.9,30.0,26.3,22.4,97,79,51,29.71,29.47,2,0,2,0.00
2014-1-1,53.6,38.0,26.1,38.5,29.9,24.6,96,75,48,29.56,29.23,4,0,4,0.00
2014-1-2,47.5,36.2,21.0,47.0,30.9,9.3,98,81,57,29.50,29.09,5,2,5,0.29